sensor_id;sensor_type;location;lat;lon;timestamp;temperature;humidity
46438;DHT22;32137;48.728;9.142;2023-06-26T00:01:12;23.70;1.00
46438;DHT22;32137;48.728;9.142;2023-06-26T00:03:37;23.70;1.00
46438;DHT22;32137;48.728;9.142;2023-06-26T00:06:03;23.70;1.00
46438;DHT22;32137;48.728;9.142;2023-06-26T00:08:28;23.70;1.00
46438;DHT22;32137;48.728;9.142;2023-06-26T00:10:54;23.60;1.00
46438;DHT22;32137;48.728;9.142;2023-06-26T00:13:19;23.60;1.00
46438;DHT22;32137;48.728;9.142;2023-06-26T00:15:45;23.50;1.00
46438;DHT22;32137;48.728;9.142;2023-06-26T00:18:10;23.50;1.00
46438;DHT22;32137;48.728;9.142;2023-06-26T00:20:36;23.40;1.00
46438;DHT22;32137;48.728;9.142;2023-06-26T00:23:01;23.30;1.00
46438;DHT22;32137;48.728;9.142;2023-06-26T00:25:29;23.30;1.00
46438;DHT22;32137;48.728;9.142;2023-06-26T00:27:54;23.20;1.00
46438;DHT22;32137;48.728;9.142;2023-06-26T00:30:20;23.20;1.00
46438;DHT22;32137;48.728;9.142;2023-06-26T00:32:45;23.20;1.00
46438;DHT22;32137;48.728;9.142;2023-06-26T00:35:11;23.20;1.00
46438;DHT22;32137;48.728;9.142;2023-06-26T00:37:36;23.20;1.00
46438;DHT22;32137;48.728;9.142;2023-06-26T00:40:02;23.20;1.00
46438;DHT22;32137;48.728;9.142;2023-06-26T00:42:30;23.20;1.00
46438;DHT22;32137;48.728;9.142;2023-06-26T00:44:55;23.20;1.00
46438;DHT22;32137;48.728;9.142;2023-06-26T00:47:21;23.10;1.00
46438;DHT22;32137;48.728;9.142;2023-06-26T00:49:46;23.10;1.00
46438;DHT22;32137;48.728;9.142;2023-06-26T00:52:12;23.10;1.00
46438;DHT22;32137;48.728;9.142;2023-06-26T00:54:38;23.00;1.00
46438;DHT22;32137;48.728;9.142;2023-06-26T00:57:03;23.00;1.00
46438;DHT22;32137;48.728;9.142;2023-06-26T00:59:29;22.90;1.00
46438;DHT22;32137;48.728;9.142;2023-06-26T01:01:54;22.90;1.00
46438;DHT22;32137;48.728;9.142;2023-06-26T01:04:20;22.80;1.00
46438;DHT22;32137;48.728;9.142;2023-06-26T01:06:46;22.80;1.00
46438;DHT22;32137;48.728;9.142;2023-06-26T01:09:17;22.80;1.00
46438;DHT22;32137;48.728;9.142;2023-06-26T01:11:43;22.70;1.00
46438;DHT22;32137;48.728;9.142;2023-06-26T01:14:09;22.70;1.00
46438;DHT22;32137;48.728;9.142;2023-06-26T01:16:35;22.70;1.00
46438;DHT22;32137;48.728;9.142;2023-06-26T01:19:00;22.70;1.00
46438;DHT22;32137;48.728;9.142;2023-06-26T01:21:26;22.60;1.00
46438;DHT22;32137;48.728;9.142;2023-06-26T01:26:24;22.50;1.00
46438;DHT22;32137;48.728;9.142;2023-06-26T01:28:51;22.50;1.00
46438;DHT22;32137;48.728;9.142;2023-06-26T01:31:17;22.50;1.00
46438;DHT22;32137;48.728;9.142;2023-06-26T01:33:44;22.50;1.00
46438;DHT22;32137;48.728;9.142;2023-06-26T01:36:10;22.50;1.00
46438;DHT22;32137;48.728;9.142;2023-06-26T01:38:36;22.50;1.00
46438;DHT22;32137;48.728;9.142;2023-06-26T01:41:02;22.40;1.00
46438;DHT22;32137;48.728;9.142;2023-06-26T01:43:29;22.40;1.00
46438;DHT22;32137;48.728;9.142;2023-06-26T01:45:58;22.30;1.00
46438;DHT22;32137;48.728;9.142;2023-06-26T01:48:26;22.40;1.00
46438;DHT22;32137;48.728;9.142;2023-06-26T01:50:53;22.30;1.00
46438;DHT22;32137;48.728;9.142;2023-06-26T01:53:19;22.30;1.00
46438;DHT22;32137;48.728;9.142;2023-06-26T01:55:47;22.30;1.00
46438;DHT22;32137;48.728;9.142;2023-06-26T01:58:15;22.30;1.00
46438;DHT22;32137;48.728;9.142;2023-06-26T02:00:42;22.20;1.00
46438;DHT22;32137;48.728;9.142;2023-06-26T02:03:08;22.30;1.00
46438;DHT22;32137;48.728;9.142;2023-06-26T02:05:33;22.20;1.00
46438;DHT22;32137;48.728;9.142;2023-06-26T02:07:59;22.20;1.00
46438;DHT22;32137;48.728;9.142;2023-06-26T02:10:26;22.20;1.00
46438;DHT22;32137;48.728;9.142;2023-06-26T02:12:52;22.10;1.00
46438;DHT22;32137;48.728;9.142;2023-06-26T02:15:17;22.10;1.00
46438;DHT22;32137;48.728;9.142;2023-06-26T02:17:42;22.00;1.00
46438;DHT22;32137;48.728;9.142;2023-06-26T02:20:09;22.00;1.00
46438;DHT22;32137;48.728;9.142;2023-06-26T02:22:35;22.00;1.00
46438;DHT22;32137;48.728;9.142;2023-06-26T02:25:01;22.00;1.00
46438;DHT22;32137;48.728;9.142;2023-06-26T02:27:27;21.90;1.00
46438;DHT22;32137;48.728;9.142;2023-06-26T02:29:52;21.90;1.00
46438;DHT22;32137;48.728;9.142;2023-06-26T02:32:18;21.90;1.00
46438;DHT22;32137;48.728;9.142;2023-06-26T02:34:43;21.90;1.00
46438;DHT22;32137;48.728;9.142;2023-06-26T02:37:09;21.90;1.00
46438;DHT22;32137;48.728;9.142;2023-06-26T02:39:35;21.90;1.00
46438;DHT22;32137;48.728;9.142;2023-06-26T02:42:01;21.90;1.00
46438;DHT22;32137;48.728;9.142;2023-06-26T02:44:27;21.90;1.00
46438;DHT22;32137;48.728;9.142;2023-06-26T02:46:52;21.80;1.00
46438;DHT22;32137;48.728;9.142;2023-06-26T02:49:17;21.80;1.00
46438;DHT22;32137;48.728;9.142;2023-06-26T02:51:43;21.80;1.00
46438;DHT22;32137;48.728;9.142;2023-06-26T02:54:08;21.80;1.00
46438;DHT22;32137;48.728;9.142;2023-06-26T02:56:34;21.80;1.00
46438;DHT22;32137;48.728;9.142;2023-06-26T02:58:59;21.80;1.00
46438;DHT22;32137;48.728;9.142;2023-06-26T03:01:25;21.80;1.00
46438;DHT22;32137;48.728;9.142;2023-06-26T03:03:50;21.80;1.00
46438;DHT22;32137;48.728;9.142;2023-06-26T03:06:16;21.80;1.00
46438;DHT22;32137;48.728;9.142;2023-06-26T03:08:41;21.80;1.00
46438;DHT22;32137;48.728;9.142;2023-06-26T03:11:07;21.80;1.00
46438;DHT22;32137;48.728;9.142;2023-06-26T03:13:36;21.80;1.00
46438;DHT22;32137;48.728;9.142;2023-06-26T03:16:02;21.60;1.00
46438;DHT22;32137;48.728;9.142;2023-06-26T03:18:28;21.60;1.00
46438;DHT22;32137;48.728;9.142;2023-06-26T03:20:54;21.50;1.00
46438;DHT22;32137;48.728;9.142;2023-06-26T03:23:20;21.50;1.00
46438;DHT22;32137;48.728;9.142;2023-06-26T03:25:46;21.40;1.00
46438;DHT22;32137;48.728;9.142;2023-06-26T03:28:12;21.40;1.00
46438;DHT22;32137;48.728;9.142;2023-06-26T03:30:37;21.40;1.00
46438;DHT22;32137;48.728;9.142;2023-06-26T03:33:03;21.40;1.00
46438;DHT22;32137;48.728;9.142;2023-06-26T03:35:28;21.30;1.00
46438;DHT22;32137;48.728;9.142;2023-06-26T03:37:53;21.30;10.50
46438;DHT22;32137;48.728;9.142;2023-06-26T03:40:19;21.30;8.40
46438;DHT22;32137;48.728;9.142;2023-06-26T03:42:45;21.20;9.00
46438;DHT22;32137;48.728;9.142;2023-06-26T03:45:10;21.30;9.50
46438;DHT22;32137;48.728;9.142;2023-06-26T03:47:36;21.30;10.80
46438;DHT22;32137;48.728;9.142;2023-06-26T03:50:01;21.30;11.60
46438;DHT22;32137;48.728;9.142;2023-06-26T03:52:27;21.30;14.90
46438;DHT22;32137;48.728;9.142;2023-06-26T03:54:52;21.30;10.60
46438;DHT22;32137;48.728;9.142;2023-06-26T03:57:17;21.20;13.90
46438;DHT22;32137;48.728;9.142;2023-06-26T03:59:43;21.10;22.60
46438;DHT22;32137;48.728;9.142;2023-06-26T04:02:08;21.20;18.20
46438;DHT22;32137;48.728;9.142;2023-06-26T04:04:34;21.20;22.30
46438;DHT22;32137;48.728;9.142;2023-06-26T04:06:59;21.20;20.10
46438;DHT22;32137;48.728;9.142;2023-06-26T04:09:25;21.20;16.50
46438;DHT22;32137;48.728;9.142;2023-06-26T04:11:50;21.20;19.20
46438;DHT22;32137;48.728;9.142;2023-06-26T04:14:16;21.20;20.60
46438;DHT22;32137;48.728;9.142;2023-06-26T04:16:41;21.20;21.90
46438;DHT22;32137;48.728;9.142;2023-06-26T04:19:07;21.20;26.20
46438;DHT22;32137;48.728;9.142;2023-06-26T04:21:33;21.20;29.60
46438;DHT22;32137;48.728;9.142;2023-06-26T04:23:58;21.10;31.70
46438;DHT22;32137;48.728;9.142;2023-06-26T04:26:24;21.10;35.40
46438;DHT22;32137;48.728;9.142;2023-06-26T04:28:49;21.20;35.50
46438;DHT22;32137;48.728;9.142;2023-06-26T04:31:15;21.20;34.60
46438;DHT22;32137;48.728;9.142;2023-06-26T04:33:40;21.20;49.00
46438;DHT22;32137;48.728;9.142;2023-06-26T04:36:06;21.10;71.00
46438;DHT22;32137;48.728;9.142;2023-06-26T04:38:32;21.20;49.50
46438;DHT22;32137;48.728;9.142;2023-06-26T04:40:57;21.20;55.00
46438;DHT22;32137;48.728;9.142;2023-06-26T04:43:23;21.20;53.60
46438;DHT22;32137;48.728;9.142;2023-06-26T04:45:48;21.10;57.00
46438;DHT22;32137;48.728;9.142;2023-06-26T04:48:14;21.10;58.10
46438;DHT22;32137;48.728;9.142;2023-06-26T04:50:39;21.20;57.90
46438;DHT22;32137;48.728;9.142;2023-06-26T04:53:05;21.20;58.90
46438;DHT22;32137;48.728;9.142;2023-06-26T04:55:30;21.20;54.00
46438;DHT22;32137;48.728;9.142;2023-06-26T04:57:56;21.20;59.10
46438;DHT22;32137;48.728;9.142;2023-06-26T05:00:22;21.30;52.50
46438;DHT22;32137;48.728;9.142;2023-06-26T05:02:47;21.20;55.10
46438;DHT22;32137;48.728;9.142;2023-06-26T05:05:13;21.20;60.70
46438;DHT22;32137;48.728;9.142;2023-06-26T05:07:40;21.30;67.20
46438;DHT22;32137;48.728;9.142;2023-06-26T05:10:06;21.20;67.90
46438;DHT22;32137;48.728;9.142;2023-06-26T05:12:32;21.30;66.60
46438;DHT22;32137;48.728;9.142;2023-06-26T05:14:57;21.30;87.00
46438;DHT22;32137;48.728;9.142;2023-06-26T05:17:22;21.40;79.70
46438;DHT22;32137;48.728;9.142;2023-06-26T05:19:48;21.40;69.80
46438;DHT22;32137;48.728;9.142;2023-06-26T05:22:13;21.30;75.30
46438;DHT22;32137;48.728;9.142;2023-06-26T05:24:39;21.40;76.00
46438;DHT22;32137;48.728;9.142;2023-06-26T05:27:05;21.40;84.30
46438;DHT22;32137;48.728;9.142;2023-06-26T05:29:31;21.40;79.70
46438;DHT22;32137;48.728;9.142;2023-06-26T05:31:57;21.40;92.60
46438;DHT22;32137;48.728;9.142;2023-06-26T05:34:23;21.40;92.80
46438;DHT22;32137;48.728;9.142;2023-06-26T05:36:49;21.50;96.90
46438;DHT22;32137;48.728;9.142;2023-06-26T05:39:15;21.50;94.60
46438;DHT22;32137;48.728;9.142;2023-06-26T05:41:42;21.50;99.90
46438;DHT22;32137;48.728;9.142;2023-06-26T05:44:08;21.50;99.90
46438;DHT22;32137;48.728;9.142;2023-06-26T05:46:33;21.60;99.60
46438;DHT22;32137;48.728;9.142;2023-06-26T05:48:58;21.60;99.90
46438;DHT22;32137;48.728;9.142;2023-06-26T05:51:24;21.60;99.90
46438;DHT22;32137;48.728;9.142;2023-06-26T05:53:50;21.60;99.90
46438;DHT22;32137;48.728;9.142;2023-06-26T05:56:15;21.70;91.60
46438;DHT22;32137;48.728;9.142;2023-06-26T05:58:41;21.80;92.50
46438;DHT22;32137;48.728;9.142;2023-06-26T06:01:08;21.80;94.00
46438;DHT22;32137;48.728;9.142;2023-06-26T06:03:33;21.80;99.20
46438;DHT22;32137;48.728;9.142;2023-06-26T06:05:59;21.80;99.90
46438;DHT22;32137;48.728;9.142;2023-06-26T06:08:24;21.80;83.80
46438;DHT22;32137;48.728;9.142;2023-06-26T06:10:49;21.90;94.00
46438;DHT22;32137;48.728;9.142;2023-06-26T06:13:15;21.90;82.80
46438;DHT22;32137;48.728;9.142;2023-06-26T06:15:41;22.10;70.20
46438;DHT22;32137;48.728;9.142;2023-06-26T06:18:06;22.10;71.90
46438;DHT22;32137;48.728;9.142;2023-06-26T06:20:32;22.10;49.10
46438;DHT22;32137;48.728;9.142;2023-06-26T06:22:57;22.20;49.90
46438;DHT22;32137;48.728;9.142;2023-06-26T06:25:23;22.20;25.40
46438;DHT22;32137;48.728;9.142;2023-06-26T06:27:48;22.30;50.80
46438;DHT22;32137;48.728;9.142;2023-06-26T06:30:14;22.30;73.30
46438;DHT22;32137;48.728;9.142;2023-06-26T06:32:39;22.30;92.60
46438;DHT22;32137;48.728;9.142;2023-06-26T06:35:05;22.30;98.20
46438;DHT22;32137;48.728;9.142;2023-06-26T06:37:35;22.40;99.90
46438;DHT22;32137;48.728;9.142;2023-06-26T06:40:01;22.40;77.70
46438;DHT22;32137;48.728;9.142;2023-06-26T06:42:26;22.50;39.70
46438;DHT22;32137;48.728;9.142;2023-06-26T06:44:52;22.50;32.10
46438;DHT22;32137;48.728;9.142;2023-06-26T06:47:17;22.60;7.30
46438;DHT22;32137;48.728;9.142;2023-06-26T06:49:43;22.80;1.00
46438;DHT22;32137;48.728;9.142;2023-06-26T06:52:08;22.90;1.00
46438;DHT22;32137;48.728;9.142;2023-06-26T06:54:50;23.00;1.00
46438;DHT22;32137;48.728;9.142;2023-06-26T06:57:15;23.10;1.00
46438;DHT22;32137;48.728;9.142;2023-06-26T06:59:41;23.10;1.00
46438;DHT22;32137;48.728;9.142;2023-06-26T07:02:07;23.10;1.00
46438;DHT22;32137;48.728;9.142;2023-06-26T07:04:32;23.20;1.00
46438;DHT22;32137;48.728;9.142;2023-06-26T07:06:58;23.30;1.00
46438;DHT22;32137;48.728;9.142;2023-06-26T07:09:23;23.40;1.00
46438;DHT22;32137;48.728;9.142;2023-06-26T07:11:49;23.40;1.00
46438;DHT22;32137;48.728;9.142;2023-06-26T07:14:14;23.40;1.00
46438;DHT22;32137;48.728;9.142;2023-06-26T07:16:40;23.40;1.00
46438;DHT22;32137;48.728;9.142;2023-06-26T07:19:05;23.40;1.00
46438;DHT22;32137;48.728;9.142;2023-06-26T07:21:31;23.40;1.00
46438;DHT22;32137;48.728;9.142;2023-06-26T07:23:56;23.60;1.00
46438;DHT22;32137;48.728;9.142;2023-06-26T07:26:22;23.70;1.00
46438;DHT22;32137;48.728;9.142;2023-06-26T07:28:47;23.70;1.00
46438;DHT22;32137;48.728;9.142;2023-06-26T07:31:16;23.70;1.00
46438;DHT22;32137;48.728;9.142;2023-06-26T07:33:42;23.80;1.00
46438;DHT22;32137;48.728;9.142;2023-06-26T07:36:07;23.90;1.00
46438;DHT22;32137;48.728;9.142;2023-06-26T07:38:33;23.90;1.00
46438;DHT22;32137;48.728;9.142;2023-06-26T07:40:58;23.90;1.00
46438;DHT22;32137;48.728;9.142;2023-06-26T07:43:23;23.90;1.00
46438;DHT22;32137;48.728;9.142;2023-06-26T07:45:49;23.90;1.00
46438;DHT22;32137;48.728;9.142;2023-06-26T07:48:16;23.80;1.00
46438;DHT22;32137;48.728;9.142;2023-06-26T07:50:42;23.90;1.00
46438;DHT22;32137;48.728;9.142;2023-06-26T07:53:07;23.90;1.00
46438;DHT22;32137;48.728;9.142;2023-06-26T07:55:33;24.00;1.00
46438;DHT22;32137;48.728;9.142;2023-06-26T07:57:58;24.00;1.00
46438;DHT22;32137;48.728;9.142;2023-06-26T08:00:24;24.10;1.00
46438;DHT22;32137;48.728;9.142;2023-06-26T08:02:49;24.20;1.00
46438;DHT22;32137;48.728;9.142;2023-06-26T08:05:15;24.30;1.00
46438;DHT22;32137;48.728;9.142;2023-06-26T08:07:40;24.40;1.00
46438;DHT22;32137;48.728;9.142;2023-06-26T08:10:06;24.40;1.00
46438;DHT22;32137;48.728;9.142;2023-06-26T08:12:31;24.30;1.00
46438;DHT22;32137;48.728;9.142;2023-06-26T08:14:57;24.40;1.00
46438;DHT22;32137;48.728;9.142;2023-06-26T08:17:22;24.40;1.00
46438;DHT22;32137;48.728;9.142;2023-06-26T08:19:48;24.40;1.00
46438;DHT22;32137;48.728;9.142;2023-06-26T08:22:13;24.60;1.00
46438;DHT22;32137;48.728;9.142;2023-06-26T08:24:39;24.60;1.00
46438;DHT22;32137;48.728;9.142;2023-06-26T08:27:04;24.50;1.00
46438;DHT22;32137;48.728;9.142;2023-06-26T08:29:31;24.60;1.00
46438;DHT22;32137;48.728;9.142;2023-06-26T08:31:56;24.70;1.00
46438;DHT22;32137;48.728;9.142;2023-06-26T08:34:22;24.70;1.00
46438;DHT22;32137;48.728;9.142;2023-06-26T08:36:47;24.70;1.00
46438;DHT22;32137;48.728;9.142;2023-06-26T08:39:12;24.60;1.00
46438;DHT22;32137;48.728;9.142;2023-06-26T08:41:38;24.60;1.00
46438;DHT22;32137;48.728;9.142;2023-06-26T08:44:03;24.80;1.00
46438;DHT22;32137;48.728;9.142;2023-06-26T08:46:29;24.90;1.00
46438;DHT22;32137;48.728;9.142;2023-06-26T08:48:56;25.00;1.00
46438;DHT22;32137;48.728;9.142;2023-06-26T08:51:21;25.00;1.00
46438;DHT22;32137;48.728;9.142;2023-06-26T08:53:52;25.00;1.00
46438;DHT22;32137;48.728;9.142;2023-06-26T08:56:19;25.00;1.00
46438;DHT22;32137;48.728;9.142;2023-06-26T08:58:47;25.10;1.00
46438;DHT22;32137;48.728;9.142;2023-06-26T09:01:12;25.00;1.00
46438;DHT22;32137;48.728;9.142;2023-06-26T09:03:38;25.00;1.00
46438;DHT22;32137;48.728;9.142;2023-06-26T09:06:03;25.00;1.00
46438;DHT22;32137;48.728;9.142;2023-06-26T09:08:29;25.10;1.00
46438;DHT22;32137;48.728;9.142;2023-06-26T09:10:55;25.10;1.00
46438;DHT22;32137;48.728;9.142;2023-06-26T09:13:20;25.20;1.00
46438;DHT22;32137;48.728;9.142;2023-06-26T09:15:46;25.30;1.00
46438;DHT22;32137;48.728;9.142;2023-06-26T09:18:12;25.40;1.00
46438;DHT22;32137;48.728;9.142;2023-06-26T09:20:37;25.50;1.00
46438;DHT22;32137;48.728;9.142;2023-06-26T09:23:03;25.60;1.00
46438;DHT22;32137;48.728;9.142;2023-06-26T09:25:29;25.70;1.00
46438;DHT22;32137;48.728;9.142;2023-06-26T09:27:55;25.70;1.00
46438;DHT22;32137;48.728;9.142;2023-06-26T09:30:20;25.70;1.00
46438;DHT22;32137;48.728;9.142;2023-06-26T09:32:46;25.90;99.90
46438;DHT22;32137;48.728;9.142;2023-06-26T09:35:12;26.10;99.90
46438;DHT22;32137;48.728;9.142;2023-06-26T09:37:37;26.10;99.90
46438;DHT22;32137;48.728;9.142;2023-06-26T09:40:03;26.30;99.90
46438;DHT22;32137;48.728;9.142;2023-06-26T09:42:30;26.30;1.00
46438;DHT22;32137;48.728;9.142;2023-06-26T09:44:55;26.40;99.90
46438;DHT22;32137;48.728;9.142;2023-06-26T09:47:21;26.40;99.90
46438;DHT22;32137;48.728;9.142;2023-06-26T09:49:46;26.50;99.90
46438;DHT22;32137;48.728;9.142;2023-06-26T09:52:15;26.50;1.00
46438;DHT22;32137;48.728;9.142;2023-06-26T09:54:47;26.50;1.00
46438;DHT22;32137;48.728;9.142;2023-06-26T09:57:13;26.50;99.90
46438;DHT22;32137;48.728;9.142;2023-06-26T09:59:39;26.60;99.90
46438;DHT22;32137;48.728;9.142;2023-06-26T10:02:05;26.70;99.90
46438;DHT22;32137;48.728;9.142;2023-06-26T10:04:30;26.90;99.90
46438;DHT22;32137;48.728;9.142;2023-06-26T10:06:57;26.90;99.90
46438;DHT22;32137;48.728;9.142;2023-06-26T10:09:23;27.00;99.90
46438;DHT22;32137;48.728;9.142;2023-06-26T10:11:51;27.00;99.90
46438;DHT22;32137;48.728;9.142;2023-06-26T10:14:20;27.10;99.90
46438;DHT22;32137;48.728;9.142;2023-06-26T10:16:47;27.10;99.90
46438;DHT22;32137;48.728;9.142;2023-06-26T10:19:14;27.10;99.90
46438;DHT22;32137;48.728;9.142;2023-06-26T10:21:42;27.10;99.90
46438;DHT22;32137;48.728;9.142;2023-06-26T10:24:07;27.10;99.90
46438;DHT22;32137;48.728;9.142;2023-06-26T10:26:35;27.10;99.90
46438;DHT22;32137;48.728;9.142;2023-06-26T10:29:03;27.10;99.90
46438;DHT22;32137;48.728;9.142;2023-06-26T10:31:30;27.10;99.90
46438;DHT22;32137;48.728;9.142;2023-06-26T10:33:56;27.00;99.90
46438;DHT22;32137;48.728;9.142;2023-06-26T10:36:31;26.90;1.00
46438;DHT22;32137;48.728;9.142;2023-06-26T10:38:57;26.70;1.00
46438;DHT22;32137;48.728;9.142;2023-06-26T10:41:23;26.60;1.00
46438;DHT22;32137;48.728;9.142;2023-06-26T10:46:23;26.60;1.00
46438;DHT22;32137;48.728;9.142;2023-06-26T10:48:55;26.70;1.00
46438;DHT22;32137;48.728;9.142;2023-06-26T10:51:21;26.70;1.00
46438;DHT22;32137;48.728;9.142;2023-06-26T10:53:50;26.80;1.00
46438;DHT22;32137;48.728;9.142;2023-06-26T10:56:18;26.90;1.00
46438;DHT22;32137;48.728;9.142;2023-06-26T10:58:44;27.00;1.00
46438;DHT22;32137;48.728;9.142;2023-06-26T11:03:38;27.30;1.00
46438;DHT22;32137;48.728;9.142;2023-06-26T11:06:10;27.30;1.00
46438;DHT22;32137;48.728;9.142;2023-06-26T11:08:45;27.30;1.00
46438;DHT22;32137;48.728;9.142;2023-06-26T11:11:14;27.30;1.00
46438;DHT22;32137;48.728;9.142;2023-06-26T11:13:40;27.40;99.90
46438;DHT22;32137;48.728;9.142;2023-06-26T11:16:06;27.60;99.90
46438;DHT22;32137;48.728;9.142;2023-06-26T11:18:32;27.80;1.00
46438;DHT22;32137;48.728;9.142;2023-06-26T11:21:10;28.00;1.00
46438;DHT22;32137;48.728;9.142;2023-06-26T11:23:38;28.10;99.90
46438;DHT22;32137;48.728;9.142;2023-06-26T11:26:17;28.20;99.90
46438;DHT22;32137;48.728;9.142;2023-06-26T11:28:50;28.20;1.00
46438;DHT22;32137;48.728;9.142;2023-06-26T11:31:26;28.30;99.90
46438;DHT22;32137;48.728;9.142;2023-06-26T11:33:52;28.40;99.90
46438;DHT22;32137;48.728;9.142;2023-06-26T11:36:18;28.70;99.90
46438;DHT22;32137;48.728;9.142;2023-06-26T11:38:43;28.90;99.90
46438;DHT22;32137;48.728;9.142;2023-06-26T11:41:09;29.00;99.90
46438;DHT22;32137;48.728;9.142;2023-06-26T11:43:34;29.20;99.90
46438;DHT22;32137;48.728;9.142;2023-06-26T11:46:00;29.70;99.90
46438;DHT22;32137;48.728;9.142;2023-06-26T11:48:25;30.50;99.90
46438;DHT22;32137;48.728;9.142;2023-06-26T11:50:51;32.60;99.90
46438;DHT22;32137;48.728;9.142;2023-06-26T11:53:17;34.40;99.90
46438;DHT22;32137;48.728;9.142;2023-06-26T11:55:42;35.60;99.90
46438;DHT22;32137;48.728;9.142;2023-06-26T11:58:08;36.80;99.90
46438;DHT22;32137;48.728;9.142;2023-06-26T12:00:34;37.60;99.90
46438;DHT22;32137;48.728;9.142;2023-06-26T12:02:59;37.90;99.90
46438;DHT22;32137;48.728;9.142;2023-06-26T12:05:24;38.30;99.90
46438;DHT22;32137;48.728;9.142;2023-06-26T12:07:50;38.50;99.90
46438;DHT22;32137;48.728;9.142;2023-06-26T12:10:16;38.10;99.90
46438;DHT22;32137;48.728;9.142;2023-06-26T12:12:42;38.10;99.90
46438;DHT22;32137;48.728;9.142;2023-06-26T12:15:08;37.80;99.90
46438;DHT22;32137;48.728;9.142;2023-06-26T12:20:17;38.30;99.90
46438;DHT22;32137;48.728;9.142;2023-06-26T12:22:43;38.50;99.90
46438;DHT22;32137;48.728;9.142;2023-06-26T12:25:10;38.30;99.90
46438;DHT22;32137;48.728;9.142;2023-06-26T12:27:35;38.20;99.90
46438;DHT22;32137;48.728;9.142;2023-06-26T12:30:02;38.20;99.90
46438;DHT22;32137;48.728;9.142;2023-06-26T12:32:28;37.80;99.90
46438;DHT22;32137;48.728;9.142;2023-06-26T12:34:53;38.40;99.90
46438;DHT22;32137;48.728;9.142;2023-06-26T12:37:21;38.10;99.90
46438;DHT22;32137;48.728;9.142;2023-06-26T12:42:16;38.00;99.90
46438;DHT22;32137;48.728;9.142;2023-06-26T12:44:41;38.40;99.90
46438;DHT22;32137;48.728;9.142;2023-06-26T12:47:06;38.10;99.90
46438;DHT22;32137;48.728;9.142;2023-06-26T12:49:33;37.50;99.90
46438;DHT22;32137;48.728;9.142;2023-06-26T12:51:59;37.10;99.90
46438;DHT22;32137;48.728;9.142;2023-06-26T12:54:26;36.90;99.90
46438;DHT22;32137;48.728;9.142;2023-06-26T12:56:52;36.80;99.90
46438;DHT22;32137;48.728;9.142;2023-06-26T12:59:17;37.00;99.90
46438;DHT22;32137;48.728;9.142;2023-06-26T13:01:43;37.20;99.90
46438;DHT22;32137;48.728;9.142;2023-06-26T13:04:08;38.00;99.90
46438;DHT22;32137;48.728;9.142;2023-06-26T13:06:35;38.30;99.90
46438;DHT22;32137;48.728;9.142;2023-06-26T13:09:00;37.40;99.90
46438;DHT22;32137;48.728;9.142;2023-06-26T13:11:30;37.40;99.90
46438;DHT22;32137;48.728;9.142;2023-06-26T13:13:55;37.40;99.90
46438;DHT22;32137;48.728;9.142;2023-06-26T13:16:21;38.30;99.90
46438;DHT22;32137;48.728;9.142;2023-06-26T13:18:46;39.10;99.90
46438;DHT22;32137;48.728;9.142;2023-06-26T13:21:12;39.10;99.90
46438;DHT22;32137;48.728;9.142;2023-06-26T13:23:38;39.10;99.90
46438;DHT22;32137;48.728;9.142;2023-06-26T13:26:04;38.90;99.90
46438;DHT22;32137;48.728;9.142;2023-06-26T13:28:29;39.30;99.90
46438;DHT22;32137;48.728;9.142;2023-06-26T13:30:55;39.90;99.90
46438;DHT22;32137;48.728;9.142;2023-06-26T13:33:20;39.80;99.90
46438;DHT22;32137;48.728;9.142;2023-06-26T13:35:46;39.90;99.90
46438;DHT22;32137;48.728;9.142;2023-06-26T13:38:11;39.60;99.90
46438;DHT22;32137;48.728;9.142;2023-06-26T13:40:37;38.70;99.90
46438;DHT22;32137;48.728;9.142;2023-06-26T13:43:02;37.70;99.90
46438;DHT22;32137;48.728;9.142;2023-06-26T13:45:28;37.20;99.90
46438;DHT22;32137;48.728;9.142;2023-06-26T13:47:54;37.80;99.90
46438;DHT22;32137;48.728;9.142;2023-06-26T13:50:19;37.70;99.90
46438;DHT22;32137;48.728;9.142;2023-06-26T13:52:45;37.20;99.90
46438;DHT22;32137;48.728;9.142;2023-06-26T13:55:11;36.50;99.90
46438;DHT22;32137;48.728;9.142;2023-06-26T13:57:36;36.10;99.90
46438;DHT22;32137;48.728;9.142;2023-06-26T14:00:07;35.90;99.90
46438;DHT22;32137;48.728;9.142;2023-06-26T14:02:33;36.00;99.90
46438;DHT22;32137;48.728;9.142;2023-06-26T14:04:58;36.00;99.90
46438;DHT22;32137;48.728;9.142;2023-06-26T14:07:23;36.10;99.90
46438;DHT22;32137;48.728;9.142;2023-06-26T14:09:50;35.80;99.90
46438;DHT22;32137;48.728;9.142;2023-06-26T14:12:15;35.70;99.90
46438;DHT22;32137;48.728;9.142;2023-06-26T14:14:41;35.60;99.90
46438;DHT22;32137;48.728;9.142;2023-06-26T14:17:07;35.60;99.90
46438;DHT22;32137;48.728;9.142;2023-06-26T14:19:34;35.40;99.90
46438;DHT22;32137;48.728;9.142;2023-06-26T14:22:00;35.20;99.90
46438;DHT22;32137;48.728;9.142;2023-06-26T14:24:26;35.10;99.90
46438;DHT22;32137;48.728;9.142;2023-06-26T14:26:51;35.00;99.90
46438;DHT22;32137;48.728;9.142;2023-06-26T14:29:17;35.00;99.90
46438;DHT22;32137;48.728;9.142;2023-06-26T14:31:43;34.80;99.90
46438;DHT22;32137;48.728;9.142;2023-06-26T14:34:08;34.50;99.90
46438;DHT22;32137;48.728;9.142;2023-06-26T14:36:34;34.50;99.90
46438;DHT22;32137;48.728;9.142;2023-06-26T14:39:00;34.50;99.90
46438;DHT22;32137;48.728;9.142;2023-06-26T14:41:26;34.30;99.90
46438;DHT22;32137;48.728;9.142;2023-06-26T14:43:51;34.40;99.90
46438;DHT22;32137;48.728;9.142;2023-06-26T14:46:17;34.40;99.90
46438;DHT22;32137;48.728;9.142;2023-06-26T14:48:43;34.30;99.90
46438;DHT22;32137;48.728;9.142;2023-06-26T14:51:08;34.40;99.90
46438;DHT22;32137;48.728;9.142;2023-06-26T14:53:34;34.30;99.90
46438;DHT22;32137;48.728;9.142;2023-06-26T14:55:59;34.20;99.90
46438;DHT22;32137;48.728;9.142;2023-06-26T14:58:25;34.20;99.90
46438;DHT22;32137;48.728;9.142;2023-06-26T15:00:50;34.20;99.90
46438;DHT22;32137;48.728;9.142;2023-06-26T15:03:15;34.10;99.90
46438;DHT22;32137;48.728;9.142;2023-06-26T15:05:41;34.10;99.90
46438;DHT22;32137;48.728;9.142;2023-06-26T15:08:06;34.10;99.90
46438;DHT22;32137;48.728;9.142;2023-06-26T15:10:32;34.00;99.90
46438;DHT22;32137;48.728;9.142;2023-06-26T15:12:57;33.40;99.90
46438;DHT22;32137;48.728;9.142;2023-06-26T15:15:23;33.30;99.90
46438;DHT22;32137;48.728;9.142;2023-06-26T15:17:49;33.30;99.90
46438;DHT22;32137;48.728;9.142;2023-06-26T15:20:14;33.30;99.90
46438;DHT22;32137;48.728;9.142;2023-06-26T15:22:40;33.30;99.90
46438;DHT22;32137;48.728;9.142;2023-06-26T15:25:06;33.10;99.90
46438;DHT22;32137;48.728;9.142;2023-06-26T15:27:32;32.90;99.90
46438;DHT22;32137;48.728;9.142;2023-06-26T15:29:57;32.80;99.90
46438;DHT22;32137;48.728;9.142;2023-06-26T15:32:23;32.60;99.90
46438;DHT22;32137;48.728;9.142;2023-06-26T15:34:48;32.70;99.90
46438;DHT22;32137;48.728;9.142;2023-06-26T15:37:13;32.60;99.90
46438;DHT22;32137;48.728;9.142;2023-06-26T15:39:39;32.50;99.90
46438;DHT22;32137;48.728;9.142;2023-06-26T15:42:05;32.40;99.90